sensor_id;sensor_type;location;lat;lon;timestamp;P1;durP1;ratioP1;P2;durP2;ratioP2
18172;SDS011;9211;48.818;9.312;2022-07-11T00:00:08;2.42;;;1.10;;
18172;SDS011;9211;48.818;9.312;2022-07-11T00:02:37;2.13;;;1.23;;
18172;SDS011;9211;48.818;9.312;2022-07-11T00:05:05;3.05;;;1.20;;
18172;SDS011;9211;48.818;9.312;2022-07-11T00:07:32;3.55;;;1.20;;
18172;SDS011;9211;48.818;9.312;2022-07-11T00:10:00;4.00;;;1.35;;
18172;SDS011;9211;48.818;9.312;2022-07-11T00:12:27;4.07;;;1.20;;
18172;SDS011;9211;48.818;9.312;2022-07-11T00:14:54;4.03;;;1.30;;
18172;SDS011;9211;48.818;9.312;2022-07-11T00:17:22;2.58;;;1.20;;
18172;SDS011;9211;48.818;9.312;2022-07-11T00:19:49;4.18;;;1.10;;
18172;SDS011;9211;48.818;9.312;2022-07-11T00:22:16;2.88;;;1.20;;
18172;SDS011;9211;48.818;9.312;2022-07-11T00:24:43;3.92;;;1.50;;
18172;SDS011;9211;48.818;9.312;2022-07-11T00:27:10;2.80;;;1.35;;
18172;SDS011;9211;48.818;9.312;2022-07-11T00:29:39;3.28;;;1.20;;
18172;SDS011;9211;48.818;9.312;2022-07-11T00:32:06;2.72;;;1.17;;
18172;SDS011;9211;48.818;9.312;2022-07-11T00:34:35;2.60;;;1.30;;
18172;SDS011;9211;48.818;9.312;2022-07-11T00:37:02;4.75;;;1.27;;
18172;SDS011;9211;48.818;9.312;2022-07-11T00:39:29;3.05;;;1.15;;
18172;SDS011;9211;48.818;9.312;2022-07-11T00:41:56;2.45;;;1.10;;
18172;SDS011;9211;48.818;9.312;2022-07-11T00:44:23;2.20;;;1.30;;
18172;SDS011;9211;48.818;9.312;2022-07-11T00:46:50;2.35;;;1.30;;
18172;SDS011;9211;48.818;9.312;2022-07-11T00:49:17;3.15;;;1.30;;
18172;SDS011;9211;48.818;9.312;2022-07-11T00:51:45;3.05;;;1.20;;
18172;SDS011;9211;48.818;9.312;2022-07-11T00:54:12;2.88;;;1.20;;
18172;SDS011;9211;48.818;9.312;2022-07-11T00:56:40;2.90;;;1.17;;
18172;SDS011;9211;48.818;9.312;2022-07-11T00:59:07;5.03;;;1.40;;
18172;SDS011;9211;48.818;9.312;2022-07-11T01:01:34;4.35;;;1.30;;
18172;SDS011;9211;48.818;9.312;2022-07-11T01:04:06;2.33;;;1.10;;
18172;SDS011;9211;48.818;9.312;2022-07-11T01:06:33;4.07;;;1.10;;
18172;SDS011;9211;48.818;9.312;2022-07-11T01:09:02;2.70;;;1.20;;
18172;SDS011;9211;48.818;9.312;2022-07-11T01:11:29;3.65;;;1.13;;
18172;SDS011;9211;48.818;9.312;2022-07-11T01:13:56;2.45;;;1.13;;
18172;SDS011;9211;48.818;9.312;2022-07-11T01:16:23;2.35;;;1.02;;
18172;SDS011;9211;48.818;9.312;2022-07-11T01:18:51;4.70;;;1.23;;
18172;SDS011;9211;48.818;9.312;2022-07-11T01:21:22;3.13;;;1.30;;
18172;SDS011;9211;48.818;9.312;2022-07-11T01:23:52;6.55;;;1.30;;
18172;SDS011;9211;48.818;9.312;2022-07-11T01:26:21;2.08;;;1.15;;
18172;SDS011;9211;48.818;9.312;2022-07-11T01:28:49;3.08;;;1.10;;
18172;SDS011;9211;48.818;9.312;2022-07-11T01:31:16;1.87;;;1.10;;
18172;SDS011;9211;48.818;9.312;2022-07-11T01:33:44;1.90;;;1.10;;
18172;SDS011;9211;48.818;9.312;2022-07-11T01:36:11;2.92;;;1.20;;
18172;SDS011;9211;48.818;9.312;2022-07-11T01:38:38;2.80;;;1.17;;
18172;SDS011;9211;48.818;9.312;2022-07-11T01:41:06;2.88;;;1.10;;
18172;SDS011;9211;48.818;9.312;2022-07-11T01:43:33;2.28;;;1.17;;
18172;SDS011;9211;48.818;9.312;2022-07-11T01:46:00;3.08;;;1.30;;
18172;SDS011;9211;48.818;9.312;2022-07-11T01:48:27;6.50;;;1.27;;
18172;SDS011;9211;48.818;9.312;2022-07-11T01:50:55;2.90;;;1.00;;
18172;SDS011;9211;48.818;9.312;2022-07-11T01:53:22;3.15;;;1.20;;
18172;SDS011;9211;48.818;9.312;2022-07-11T01:55:49;2.85;;;0.98;;
18172;SDS011;9211;48.818;9.312;2022-07-11T01:58:17;2.38;;;1.00;;
18172;SDS011;9211;48.818;9.312;2022-07-11T02:03:26;1.70;;;0.98;;
18172;SDS011;9211;48.818;9.312;2022-07-11T02:05:53;3.25;;;1.10;;
18172;SDS011;9211;48.818;9.312;2022-07-11T02:08:20;4.43;;;1.20;;
18172;SDS011;9211;48.818;9.312;2022-07-11T02:10:49;1.95;;;1.20;;
18172;SDS011;9211;48.818;9.312;2022-07-11T02:13:19;2.72;;;1.15;;
18172;SDS011;9211;48.818;9.312;2022-07-11T02:15:48;2.05;;;1.10;;
18172;SDS011;9211;48.818;9.312;2022-07-11T02:18:16;2.30;;;1.10;;
18172;SDS011;9211;48.818;9.312;2022-07-11T02:20:44;2.87;;;1.13;;
18172;SDS011;9211;48.818;9.312;2022-07-11T02:23:14;3.55;;;1.15;;
18172;SDS011;9211;48.818;9.312;2022-07-11T02:25:41;2.90;;;1.23;;
18172;SDS011;9211;48.818;9.312;2022-07-11T02:28:09;2.95;;;1.20;;
18172;SDS011;9211;48.818;9.312;2022-07-11T02:30:38;2.67;;;1.20;;
18172;SDS011;9211;48.818;9.312;2022-07-11T02:33:07;2.07;;;1.10;;
18172;SDS011;9211;48.818;9.312;2022-07-11T02:35:36;3.00;;;1.30;;
18172;SDS011;9211;48.818;9.312;2022-07-11T02:38:03;3.10;;;1.10;;
18172;SDS011;9211;48.818;9.312;2022-07-11T02:40:30;2.50;;;1.10;;
18172;SDS011;9211;48.818;9.312;2022-07-11T02:42:58;2.20;;;1.10;;
18172;SDS011;9211;48.818;9.312;2022-07-11T02:45:25;3.05;;;1.20;;
18172;SDS011;9211;48.818;9.312;2022-07-11T02:47:53;3.33;;;1.10;;
18172;SDS011;9211;48.818;9.312;2022-07-11T02:50:20;1.92;;;1.10;;
18172;SDS011;9211;48.818;9.312;2022-07-11T02:52:47;2.45;;;1.10;;
18172;SDS011;9211;48.818;9.312;2022-07-11T02:55:14;3.25;;;1.10;;
18172;SDS011;9211;48.818;9.312;2022-07-11T02:57:41;2.55;;;1.10;;
18172;SDS011;9211;48.818;9.312;2022-07-11T03:00:10;4.22;;;1.20;;
18172;SDS011;9211;48.818;9.312;2022-07-11T03:02:39;3.45;;;1.13;;
18172;SDS011;9211;48.818;9.312;2022-07-11T03:05:08;3.20;;;1.30;;
18172;SDS011;9211;48.818;9.312;2022-07-11T03:07:35;2.85;;;1.20;;
18172;SDS011;9211;48.818;9.312;2022-07-11T03:10:02;2.80;;;1.15;;
18172;SDS011;9211;48.818;9.312;2022-07-11T03:12:29;4.30;;;1.20;;
18172;SDS011;9211;48.818;9.312;2022-07-11T03:14:56;4.03;;;1.40;;
18172;SDS011;9211;48.818;9.312;2022-07-11T03:17:23;4.43;;;1.33;;
18172;SDS011;9211;48.818;9.312;2022-07-11T03:19:50;3.15;;;1.40;;
18172;SDS011;9211;48.818;9.312;2022-07-11T03:22:18;3.20;;;1.30;;
18172;SDS011;9211;48.818;9.312;2022-07-11T03:24:46;2.72;;;1.30;;
18172;SDS011;9211;48.818;9.312;2022-07-11T03:27:13;5.00;;;1.40;;
18172;SDS011;9211;48.818;9.312;2022-07-11T03:29:40;3.50;;;1.20;;
18172;SDS011;9211;48.818;9.312;2022-07-11T03:32:07;4.95;;;1.48;;
18172;SDS011;9211;48.818;9.312;2022-07-11T03:34:34;3.40;;;1.40;;
18172;SDS011;9211;48.818;9.312;2022-07-11T03:37:02;2.33;;;1.10;;
18172;SDS011;9211;48.818;9.312;2022-07-11T03:39:31;2.95;;;1.20;;
18172;SDS011;9211;48.818;9.312;2022-07-11T03:41:58;2.88;;;1.40;;
18172;SDS011;9211;48.818;9.312;2022-07-11T03:44:25;3.42;;;1.33;;
18172;SDS011;9211;48.818;9.312;2022-07-11T03:46:52;4.43;;;1.35;;
18172;SDS011;9211;48.818;9.312;2022-07-11T03:49:19;2.67;;;1.30;;
18172;SDS011;9211;48.818;9.312;2022-07-11T03:51:46;3.65;;;1.30;;
18172;SDS011;9211;48.818;9.312;2022-07-11T03:54:13;4.23;;;1.40;;
18172;SDS011;9211;48.818;9.312;2022-07-11T03:56:41;4.15;;;1.42;;
18172;SDS011;9211;48.818;9.312;2022-07-11T03:59:08;2.17;;;1.40;;
18172;SDS011;9211;48.818;9.312;2022-07-11T04:01:35;2.53;;;1.42;;
18172;SDS011;9211;48.818;9.312;2022-07-11T04:04:02;3.17;;;1.50;;
18172;SDS011;9211;48.818;9.312;2022-07-11T04:06:33;2.53;;;1.15;;
18172;SDS011;9211;48.818;9.312;2022-07-11T04:09:00;3.53;;;1.40;;
18172;SDS011;9211;48.818;9.312;2022-07-11T04:11:27;2.33;;;1.23;;
18172;SDS011;9211;48.818;9.312;2022-07-11T04:13:56;3.38;;;1.30;;
18172;SDS011;9211;48.818;9.312;2022-07-11T04:16:23;4.20;;;1.50;;
18172;SDS011;9211;48.818;9.312;2022-07-11T04:18:50;2.55;;;1.33;;
18172;SDS011;9211;48.818;9.312;2022-07-11T04:21:17;3.15;;;1.30;;
18172;SDS011;9211;48.818;9.312;2022-07-11T04:23:44;2.58;;;1.40;;
18172;SDS011;9211;48.818;9.312;2022-07-11T04:26:11;3.05;;;1.25;;
18172;SDS011;9211;48.818;9.312;2022-07-11T04:28:38;2.40;;;1.30;;
18172;SDS011;9211;48.818;9.312;2022-07-11T04:31:07;2.60;;;1.27;;
18172;SDS011;9211;48.818;9.312;2022-07-11T04:33:35;2.67;;;1.20;;
18172;SDS011;9211;48.818;9.312;2022-07-11T04:36:02;5.00;;;1.50;;
18172;SDS011;9211;48.818;9.312;2022-07-11T04:38:30;3.33;;;1.42;;
18172;SDS011;9211;48.818;9.312;2022-07-11T04:40:56;3.10;;;1.40;;
18172;SDS011;9211;48.818;9.312;2022-07-11T04:43:23;3.10;;;1.45;;
18172;SDS011;9211;48.818;9.312;2022-07-11T04:45:50;2.72;;;1.40;;
18172;SDS011;9211;48.818;9.312;2022-07-11T04:48:19;3.40;;;1.38;;
18172;SDS011;9211;48.818;9.312;2022-07-11T04:50:47;4.85;;;1.58;;
18172;SDS011;9211;48.818;9.312;2022-07-11T04:53:13;3.33;;;1.40;;
18172;SDS011;9211;48.818;9.312;2022-07-11T04:55:40;5.30;;;1.77;;
18172;SDS011;9211;48.818;9.312;2022-07-11T04:58:08;4.03;;;1.60;;
18172;SDS011;9211;48.818;9.312;2022-07-11T05:00:35;2.83;;;1.30;;
18172;SDS011;9211;48.818;9.312;2022-07-11T05:03:02;3.03;;;1.48;;
18172;SDS011;9211;48.818;9.312;2022-07-11T05:05:31;4.40;;;2.00;;
18172;SDS011;9211;48.818;9.312;2022-07-11T05:07:58;4.60;;;2.00;;
18172;SDS011;9211;48.818;9.312;2022-07-11T05:10:26;3.87;;;1.57;;
18172;SDS011;9211;48.818;9.312;2022-07-11T05:12:53;4.28;;;1.98;;
18172;SDS011;9211;48.818;9.312;2022-07-11T05:15:20;3.42;;;1.90;;
18172;SDS011;9211;48.818;9.312;2022-07-11T05:17:48;6.32;;;2.05;;
18172;SDS011;9211;48.818;9.312;2022-07-11T05:20:15;4.57;;;2.08;;
18172;SDS011;9211;48.818;9.312;2022-07-11T05:22:43;6.97;;;2.50;;
18172;SDS011;9211;48.818;9.312;2022-07-11T05:25:10;5.28;;;2.20;;
18172;SDS011;9211;48.818;9.312;2022-07-11T05:27:37;6.25;;;2.67;;
18172;SDS011;9211;48.818;9.312;2022-07-11T05:30:05;8.85;;;2.40;;
18172;SDS011;9211;48.818;9.312;2022-07-11T05:32:33;5.77;;;1.80;;
18172;SDS011;9211;48.818;9.312;2022-07-11T05:35:00;5.53;;;2.00;;
18172;SDS011;9211;48.818;9.312;2022-07-11T05:37:29;3.95;;;2.00;;
18172;SDS011;9211;48.818;9.312;2022-07-11T05:39:57;3.60;;;1.80;;
18172;SDS011;9211;48.818;9.312;2022-07-11T05:42:24;3.60;;;1.60;;
18172;SDS011;9211;48.818;9.312;2022-07-11T05:44:51;5.03;;;1.92;;
18172;SDS011;9211;48.818;9.312;2022-07-11T05:47:18;9.07;;;1.88;;
18172;SDS011;9211;48.818;9.312;2022-07-11T05:49:45;6.05;;;1.80;;
18172;SDS011;9211;48.818;9.312;2022-07-11T05:52:12;3.53;;;1.63;;
18172;SDS011;9211;48.818;9.312;2022-07-11T05:54:39;4.82;;;2.00;;
18172;SDS011;9211;48.818;9.312;2022-07-11T05:57:08;4.53;;;1.95;;
18172;SDS011;9211;48.818;9.312;2022-07-11T05:59:35;5.63;;;1.90;;
18172;SDS011;9211;48.818;9.312;2022-07-11T06:02:03;3.85;;;1.90;;
18172;SDS011;9211;48.818;9.312;2022-07-11T06:04:32;3.13;;;1.70;;
18172;SDS011;9211;48.818;9.312;2022-07-11T06:07:00;2.72;;;1.80;;
18172;SDS011;9211;48.818;9.312;2022-07-11T06:09:26;4.13;;;2.10;;
18172;SDS011;9211;48.818;9.312;2022-07-11T06:11:52;4.30;;;1.90;;
18172;SDS011;9211;48.818;9.312;2022-07-11T06:14:21;4.13;;;1.70;;
18172;SDS011;9211;48.818;9.312;2022-07-11T06:16:49;3.22;;;1.90;;
18172;SDS011;9211;48.818;9.312;2022-07-11T06:19:16;4.45;;;1.90;;
18172;SDS011;9211;48.818;9.312;2022-07-11T06:21:44;3.72;;;1.80;;
18172;SDS011;9211;48.818;9.312;2022-07-11T06:24:11;4.97;;;1.65;;
18172;SDS011;9211;48.818;9.312;2022-07-11T06:26:38;4.60;;;1.67;;
18172;SDS011;9211;48.818;9.312;2022-07-11T06:29:05;3.67;;;1.83;;
18172;SDS011;9211;48.818;9.312;2022-07-11T06:31:34;3.88;;;1.83;;
18172;SDS011;9211;48.818;9.312;2022-07-11T06:34:01;3.03;;;2.00;;
18172;SDS011;9211;48.818;9.312;2022-07-11T06:36:28;5.95;;;1.92;;
18172;SDS011;9211;48.818;9.312;2022-07-11T06:38:55;2.88;;;1.83;;
18172;SDS011;9211;48.818;9.312;2022-07-11T06:41:22;6.33;;;2.30;;
18172;SDS011;9211;48.818;9.312;2022-07-11T06:43:49;3.88;;;1.90;;
18172;SDS011;9211;48.818;9.312;2022-07-11T06:46:16;3.38;;;2.05;;
18172;SDS011;9211;48.818;9.312;2022-07-11T06:48:45;5.75;;;1.92;;
18172;SDS011;9211;48.818;9.312;2022-07-11T06:51:12;3.40;;;1.90;;
18172;SDS011;9211;48.818;9.312;2022-07-11T06:53:39;2.95;;;1.50;;
18172;SDS011;9211;48.818;9.312;2022-07-11T06:56:06;3.13;;;1.70;;
18172;SDS011;9211;48.818;9.312;2022-07-11T06:58:33;4.38;;;2.25;;
18172;SDS011;9211;48.818;9.312;2022-07-11T07:01:01;2.97;;;1.80;;
18172;SDS011;9211;48.818;9.312;2022-07-11T07:03:28;3.60;;;2.00;;
18172;SDS011;9211;48.818;9.312;2022-07-11T07:05:58;2.77;;;1.90;;
18172;SDS011;9211;48.818;9.312;2022-07-11T07:08:25;5.60;;;2.28;;
18172;SDS011;9211;48.818;9.312;2022-07-11T07:10:53;4.63;;;2.35;;
18172;SDS011;9211;48.818;9.312;2022-07-11T07:13:21;4.95;;;2.00;;
18172;SDS011;9211;48.818;9.312;2022-07-11T07:15:51;3.92;;;1.80;;
18172;SDS011;9211;48.818;9.312;2022-07-11T07:18:18;3.70;;;1.90;;
18172;SDS011;9211;48.818;9.312;2022-07-11T07:20:46;4.82;;;2.33;;
18172;SDS011;9211;48.818;9.312;2022-07-11T07:23:15;4.30;;;2.50;;
18172;SDS011;9211;48.818;9.312;2022-07-11T07:25:42;3.47;;;2.10;;
18172;SDS011;9211;48.818;9.312;2022-07-11T07:28:09;3.75;;;2.10;;
18172;SDS011;9211;48.818;9.312;2022-07-11T07:30:36;3.60;;;1.63;;
18172;SDS011;9211;48.818;9.312;2022-07-11T07:33:04;3.60;;;1.80;;
18172;SDS011;9211;48.818;9.312;2022-07-11T07:35:31;3.65;;;2.10;;
18172;SDS011;9211;48.818;9.312;2022-07-11T07:37:57;2.40;;;1.80;;
18172;SDS011;9211;48.818;9.312;2022-07-11T07:40:27;3.58;;;1.90;;
18172;SDS011;9211;48.818;9.312;2022-07-11T07:42:54;2.47;;;1.67;;
18172;SDS011;9211;48.818;9.312;2022-07-11T07:45:21;3.33;;;1.92;;
18172;SDS011;9211;48.818;9.312;2022-07-11T07:47:49;2.72;;;1.70;;
18172;SDS011;9211;48.818;9.312;2022-07-11T07:50:16;3.67;;;1.47;;
18172;SDS011;9211;48.818;9.312;2022-07-11T07:52:43;2.43;;;1.40;;
18172;SDS011;9211;48.818;9.312;2022-07-11T07:55:09;2.10;;;1.40;;
18172;SDS011;9211;48.818;9.312;2022-07-11T07:57:38;3.45;;;1.60;;
18172;SDS011;9211;48.818;9.312;2022-07-11T08:00:06;2.90;;;1.52;;
18172;SDS011;9211;48.818;9.312;2022-07-11T08:02:51;2.90;;;1.30;;
18172;SDS011;9211;48.818;9.312;2022-07-11T08:05:19;2.55;;;1.50;;
18172;SDS011;9211;48.818;9.312;2022-07-11T08:07:46;1.77;;;1.23;;
18172;SDS011;9211;48.818;9.312;2022-07-11T08:10:13;2.72;;;1.30;;
18172;SDS011;9211;48.818;9.312;2022-07-11T08:12:42;2.00;;;1.30;;
18172;SDS011;9211;48.818;9.312;2022-07-11T08:15:10;2.85;;;1.48;;
18172;SDS011;9211;48.818;9.312;2022-07-11T08:17:37;2.30;;;1.23;;
18172;SDS011;9211;48.818;9.312;2022-07-11T08:20:04;2.17;;;1.30;;
18172;SDS011;9211;48.818;9.312;2022-07-11T08:22:32;3.78;;;1.60;;
18172;SDS011;9211;48.818;9.312;2022-07-11T08:24:59;2.60;;;1.48;;
18172;SDS011;9211;48.818;9.312;2022-07-11T08:27:26;2.10;;;1.38;;
18172;SDS011;9211;48.818;9.312;2022-07-11T08:29:54;2.10;;;1.50;;
18172;SDS011;9211;48.818;9.312;2022-07-11T08:32:23;1.60;;;1.20;;
18172;SDS011;9211;48.818;9.312;2022-07-11T08:34:50;3.28;;;1.42;;
18172;SDS011;9211;48.818;9.312;2022-07-11T08:37:17;2.90;;;1.20;;
18172;SDS011;9211;48.818;9.312;2022-07-11T08:39:44;2.30;;;1.48;;
18172;SDS011;9211;48.818;9.312;2022-07-11T08:42:11;2.77;;;1.30;;
18172;SDS011;9211;48.818;9.312;2022-07-11T08:44:38;2.53;;;1.13;;
18172;SDS011;9211;48.818;9.312;2022-07-11T08:47:07;2.80;;;1.20;;
18172;SDS011;9211;48.818;9.312;2022-07-11T08:49:35;2.95;;;1.33;;
18172;SDS011;9211;48.818;9.312;2022-07-11T08:52:03;1.55;;;1.25;;
18172;SDS011;9211;48.818;9.312;2022-07-11T08:54:31;1.25;;;1.00;;
18172;SDS011;9211;48.818;9.312;2022-07-11T08:56:58;1.98;;;0.98;;
18172;SDS011;9211;48.818;9.312;2022-07-11T08:59:27;2.10;;;1.10;;
18172;SDS011;9211;48.818;9.312;2022-07-11T09:01:58;1.40;;;1.00;;
18172;SDS011;9211;48.818;9.312;2022-07-11T09:04:30;2.53;;;1.02;;
18172;SDS011;9211;48.818;9.312;2022-07-11T09:06:59;2.88;;;1.23;;
18172;SDS011;9211;48.818;9.312;2022-07-11T09:09:26;1.40;;;1.00;;
18172;SDS011;9211;48.818;9.312;2022-07-11T09:11:54;2.20;;;0.90;;
18172;SDS011;9211;48.818;9.312;2022-07-11T09:14:23;1.60;;;1.00;;
18172;SDS011;9211;48.818;9.312;2022-07-11T09:16:51;1.10;;;1.00;;
18172;SDS011;9211;48.818;9.312;2022-07-11T09:19:23;2.15;;;1.20;;
18172;SDS011;9211;48.818;9.312;2022-07-11T09:21:59;2.00;;;1.00;;
18172;SDS011;9211;48.818;9.312;2022-07-11T09:24:55;2.53;;;1.17;;
18172;SDS011;9211;48.818;9.312;2022-07-11T09:27:44;1.58;;;1.10;;
18172;SDS011;9211;48.818;9.312;2022-07-11T09:30:19;1.52;;;1.10;;
18172;SDS011;9211;48.818;9.312;2022-07-11T09:32:51;2.03;;;1.10;;
18172;SDS011;9211;48.818;9.312;2022-07-11T09:35:20;2.10;;;0.90;;
18172;SDS011;9211;48.818;9.312;2022-07-11T09:37:50;3.10;;;1.00;;
18172;SDS011;9211;48.818;9.312;2022-07-11T09:40:17;31.95;;;19.52;;
18172;SDS011;9211;48.818;9.312;2022-07-11T09:42:47;22.35;;;13.15;;
18172;SDS011;9211;48.818;9.312;2022-07-11T09:45:19;17.17;;;10.38;;
18172;SDS011;9211;48.818;9.312;2022-07-11T09:47:48;19.95;;;13.00;;
18172;SDS011;9211;48.818;9.312;2022-07-11T09:50:19;21.67;;;13.43;;
18172;SDS011;9211;48.818;9.312;2022-07-11T09:52:59;14.25;;;9.20;;
18172;SDS011;9211;48.818;9.312;2022-07-11T09:55:30;6.93;;;4.53;;
18172;SDS011;9211;48.818;9.312;2022-07-11T09:57:58;2.50;;;1.35;;
18172;SDS011;9211;48.818;9.312;2022-07-11T10:00:25;1.17;;;0.80;;
18172;SDS011;9211;48.818;9.312;2022-07-11T10:02:52;2.90;;;1.80;;
18172;SDS011;9211;48.818;9.312;2022-07-11T10:05:20;5.35;;;3.30;;
18172;SDS011;9211;48.818;9.312;2022-07-11T10:07:48;3.97;;;2.58;;
18172;SDS011;9211;48.818;9.312;2022-07-11T10:10:16;1.85;;;1.15;;
18172;SDS011;9211;48.818;9.312;2022-07-11T10:12:43;2.50;;;1.67;;
18172;SDS011;9211;48.818;9.312;2022-07-11T10:15:13;2.38;;;1.65;;
18172;SDS011;9211;48.818;9.312;2022-07-11T10:17:45;2.33;;;1.55;;
18172;SDS011;9211;48.818;9.312;2022-07-11T10:20:17;1.92;;;1.40;;
18172;SDS011;9211;48.818;9.312;2022-07-11T10:22:53;1.15;;;0.90;;
18172;SDS011;9211;48.818;9.312;2022-07-11T10:25:32;1.48;;;1.00;;
18172;SDS011;9211;48.818;9.312;2022-07-11T10:28:08;2.65;;;1.70;;
18172;SDS011;9211;48.818;9.312;2022-07-11T10:30:43;2.00;;;1.00;;
18172;SDS011;9211;48.818;9.312;2022-07-11T10:33:11;3.25;;;1.88;;
18172;SDS011;9211;48.818;9.312;2022-07-11T10:35:42;1.88;;;1.52;;
18172;SDS011;9211;48.818;9.312;2022-07-11T10:38:10;8.68;;;5.10;;
18172;SDS011;9211;48.818;9.312;2022-07-11T10:40:43;4.23;;;1.80;;
18172;SDS011;9211;48.818;9.312;2022-07-11T10:43:15;2.30;;;1.30;;
18172;SDS011;9211;48.818;9.312;2022-07-11T10:45:59;4.88;;;3.20;;
18172;SDS011;9211;48.818;9.312;2022-07-11T10:48:28;6.95;;;4.10;;
18172;SDS011;9211;48.818;9.312;2022-07-11T10:51:16;4.28;;;2.17;;
18172;SDS011;9211;48.818;9.312;2022-07-11T10:53:50;2.87;;;1.30;;
18172;SDS011;9211;48.818;9.312;2022-07-11T10:56:24;1.43;;;1.10;;
18172;SDS011;9211;48.818;9.312;2022-07-11T10:59:06;1.90;;;1.48;;
18172;SDS011;9211;48.818;9.312;2022-07-11T11:04:46;1.58;;;1.10;;
18172;SDS011;9211;48.818;9.312;2022-07-11T11:07:31;1.20;;;1.00;;
18172;SDS011;9211;48.818;9.312;2022-07-11T11:10:00;1.08;;;0.95;;
18172;SDS011;9211;48.818;9.312;2022-07-11T11:15:38;2.90;;;2.05;;
18172;SDS011;9211;48.818;9.312;2022-07-11T11:24:06;1.92;;;0.90;;
18172;SDS011;9211;48.818;9.312;2022-07-11T11:26:43;1.40;;;0.90;;
18172;SDS011;9211;48.818;9.312;2022-07-11T11:29:15;1.92;;;0.90;;
18172;SDS011;9211;48.818;9.312;2022-07-11T11:31:50;1.27;;;0.90;;
18172;SDS011;9211;48.818;9.312;2022-07-11T11:34:18;1.00;;;0.80;;
18172;SDS011;9211;48.818;9.312;2022-07-11T11:36:51;1.27;;;0.82;;
18172;SDS011;9211;48.818;9.312;2022-07-11T11:39:26;1.33;;;0.85;;
18172;SDS011;9211;48.818;9.312;2022-07-11T11:42:00;1.60;;;0.90;;
18172;SDS011;9211;48.818;9.312;2022-07-11T11:44:29;2.67;;;0.90;;
18172;SDS011;9211;48.818;9.312;2022-07-11T11:46:58;1.10;;;0.85;;
18172;SDS011;9211;48.818;9.312;2022-07-11T11:49:25;1.80;;;1.00;;
18172;SDS011;9211;48.818;9.312;2022-07-11T11:51:53;2.20;;;0.93;;
18172;SDS011;9211;48.818;9.312;2022-07-11T11:54:22;2.00;;;1.20;;
18172;SDS011;9211;48.818;9.312;2022-07-11T11:56:50;1.92;;;1.00;;
18172;SDS011;9211;48.818;9.312;2022-07-11T11:59:17;1.95;;;1.10;;
18172;SDS011;9211;48.818;9.312;2022-07-11T12:01:54;1.80;;;1.20;;
18172;SDS011;9211;48.818;9.312;2022-07-11T12:04:22;2.20;;;1.20;;
18172;SDS011;9211;48.818;9.312;2022-07-11T12:06:49;1.97;;;1.10;;
18172;SDS011;9211;48.818;9.312;2022-07-11T12:09:17;1.95;;;1.10;;
18172;SDS011;9211;48.818;9.312;2022-07-11T12:11:48;1.27;;;0.98;;
18172;SDS011;9211;48.818;9.312;2022-07-11T12:14:36;1.70;;;1.03;;
18172;SDS011;9211;48.818;9.312;2022-07-11T12:17:03;1.35;;;1.10;;
18172;SDS011;9211;48.818;9.312;2022-07-11T12:19:33;2.40;;;1.17;;
18172;SDS011;9211;48.818;9.312;2022-07-11T12:22:03;2.45;;;1.30;;
18172;SDS011;9211;48.818;9.312;2022-07-11T12:24:31;1.85;;;1.08;;
18172;SDS011;9211;48.818;9.312;2022-07-11T12:26:59;1.67;;;1.00;;
18172;SDS011;9211;48.818;9.312;2022-07-11T12:29:26;1.95;;;1.08;;
18172;SDS011;9211;48.818;9.312;2022-07-11T12:31:54;1.67;;;0.90;;
18172;SDS011;9211;48.818;9.312;2022-07-11T12:34:23;1.90;;;1.20;;
18172;SDS011;9211;48.818;9.312;2022-07-11T12:37:02;1.80;;;1.10;;
18172;SDS011;9211;48.818;9.312;2022-07-11T12:39:30;2.88;;;1.00;;
18172;SDS011;9211;48.818;9.312;2022-07-11T12:41:59;1.00;;;0.90;;
18172;SDS011;9211;48.818;9.312;2022-07-11T12:44:27;1.10;;;0.98;;
18172;SDS011;9211;48.818;9.312;2022-07-11T12:47:14;2.25;;;1.10;;
18172;SDS011;9211;48.818;9.312;2022-07-11T12:49:42;1.60;;;1.00;;
18172;SDS011;9211;48.818;9.312;2022-07-11T12:52:12;1.83;;;1.13;;
18172;SDS011;9211;48.818;9.312;2022-07-11T12:54:41;4.18;;;1.20;;
18172;SDS011;9211;48.818;9.312;2022-07-11T12:57:08;1.65;;;1.10;;
18172;SDS011;9211;48.818;9.312;2022-07-11T12:59:38;1.10;;;1.00;;
18172;SDS011;9211;48.818;9.312;2022-07-11T13:02:07;2.33;;;1.30;;
18172;SDS011;9211;48.818;9.312;2022-07-11T13:04:36;1.30;;;1.10;;
18172;SDS011;9211;48.818;9.312;2022-07-11T13:07:24;2.80;;;1.10;;
18172;SDS011;9211;48.818;9.312;2022-07-11T13:10:10;1.83;;;1.30;;
18172;SDS011;9211;48.818;9.312;2022-07-11T13:12:38;2.30;;;1.20;;
18172;SDS011;9211;48.818;9.312;2022-07-11T13:15:07;1.85;;;1.30;;
18172;SDS011;9211;48.818;9.312;2022-07-11T13:17:36;1.73;;;1.40;;
18172;SDS011;9211;48.818;9.312;2022-07-11T13:20:05;1.83;;;1.20;;
18172;SDS011;9211;48.818;9.312;2022-07-11T13:22:35;2.78;;;1.38;;
18172;SDS011;9211;48.818;9.312;2022-07-11T13:25:03;1.65;;;1.30;;
18172;SDS011;9211;48.818;9.312;2022-07-11T13:27:30;2.17;;;1.30;;
18172;SDS011;9211;48.818;9.312;2022-07-11T13:29:57;2.03;;;1.30;;
18172;SDS011;9211;48.818;9.312;2022-07-11T13:32:24;2.40;;;1.30;;
18172;SDS011;9211;48.818;9.312;2022-07-11T13:34:51;5.10;;;1.60;;
18172;SDS011;9211;48.818;9.312;2022-07-11T13:37:18;4.90;;;1.50;;
18172;SDS011;9211;48.818;9.312;2022-07-11T13:39:47;2.92;;;1.40;;
18172;SDS011;9211;48.818;9.312;2022-07-11T13:42:14;1.90;;;1.40;;
18172;SDS011;9211;48.818;9.312;2022-07-11T13:44:41;3.45;;;1.52;;
18172;SDS011;9211;48.818;9.312;2022-07-11T13:47:08;2.60;;;1.30;;
18172;SDS011;9211;48.818;9.312;2022-07-11T13:49:37;4.40;;;1.50;;
18172;SDS011;9211;48.818;9.312;2022-07-11T13:52:04;4.35;;;1.40;;
18172;SDS011;9211;48.818;9.312;2022-07-11T13:54:31;2.30;;;1.50;;
18172;SDS011;9211;48.818;9.312;2022-07-11T13:57:00;2.00;;;1.45;;
18172;SDS011;9211;48.818;9.312;2022-07-11T13:59:27;2.47;;;1.27;;
18172;SDS011;9211;48.818;9.312;2022-07-11T14:01:54;2.47;;;1.60;;
18172;SDS011;9211;48.818;9.312;2022-07-11T14:04:21;3.35;;;1.52;;
18172;SDS011;9211;48.818;9.312;2022-07-11T14:06:48;2.28;;;1.33;;
18172;SDS011;9211;48.818;9.312;2022-07-11T14:09:15;4.30;;;1.40;;
18172;SDS011;9211;48.818;9.312;2022-07-11T14:11:42;2.45;;;1.48;;
18172;SDS011;9211;48.818;9.312;2022-07-11T14:14:11;1.98;;;1.30;;
18172;SDS011;9211;48.818;9.312;2022-07-11T14:16:38;2.58;;;1.60;;
18172;SDS011;9211;48.818;9.312;2022-07-11T14:19:05;1.77;;;1.30;;
18172;SDS011;9211;48.818;9.312;2022-07-11T14:21:35;2.60;;;1.40;;
18172;SDS011;9211;48.818;9.312;2022-07-11T14:24:02;1.73;;;1.40;;
18172;SDS011;9211;48.818;9.312;2022-07-11T14:26:31;2.22;;;1.45;;
18172;SDS011;9211;48.818;9.312;2022-07-11T14:28:58;1.40;;;1.30;;
18172;SDS011;9211;48.818;9.312;2022-07-11T14:31:27;1.48;;;1.30;;
18172;SDS011;9211;48.818;9.312;2022-07-11T14:33:55;2.15;;;1.45;;
18172;SDS011;9211;48.818;9.312;2022-07-11T14:36:24;2.90;;;1.50;;
18172;SDS011;9211;48.818;9.312;2022-07-11T14:38:51;2.83;;;1.53;;
18172;SDS011;9211;48.818;9.312;2022-07-11T14:41:19;2.08;;;1.40;;
18172;SDS011;9211;48.818;9.312;2022-07-11T14:43:46;2.35;;;1.60;;
18172;SDS011;9211;48.818;9.312;2022-07-11T14:46:13;3.50;;;1.23;;
18172;SDS011;9211;48.818;9.312;2022-07-11T14:48:42;3.80;;;1.50;;
18172;SDS011;9211;48.818;9.312;2022-07-11T14:51:10;1.75;;;1.20;;
18172;SDS011;9211;48.818;9.312;2022-07-11T14:53:37;1.48;;;1.30;;
18172;SDS011;9211;48.818;9.312;2022-07-11T14:56:04;3.15;;;1.30;;
18172;SDS011;9211;48.818;9.312;2022-07-11T14:58:31;1.98;;;1.40;;
18172;SDS011;9211;48.818;9.312;2022-07-11T15:00:59;1.80;;;1.30;;
18172;SDS011;9211;48.818;9.312;2022-07-11T15:03:26;2.37;;;1.50;;
18172;SDS011;9211;48.818;9.312;2022-07-11T15:06:11;2.58;;;1.50;;
18172;SDS011;9211;48.818;9.312;2022-07-11T15:08:39;1.95;;;1.30;;
18172;SDS011;9211;48.818;9.312;2022-07-11T15:11:24;1.90;;;1.45;;
18172;SDS011;9211;48.818;9.312;2022-07-11T15:14:09;2.23;;;1.20;;
18172;SDS011;9211;48.818;9.312;2022-07-11T15:16:37;2.33;;;1.50;;
18172;SDS011;9211;48.818;9.312;2022-07-11T15:19:05;2.30;;;1.38;;
18172;SDS011;9211;48.818;9.312;2022-07-11T15:21:34;2.00;;;1.43;;
18172;SDS011;9211;48.818;9.312;2022-07-11T15:24:02;2.38;;;1.40;;